Time;durP1;ratioP1;P1;durP2;ratioP2;P2;SDS_P1;SDS_P2;PMS_P1;PMS_P2;Temp;Humidity;BMP_temperature;BMP_pressure;BME280_temperature;BME280_humidity;BME280_pressure;Samples;Min_cycle;Max_cycle;Signal;HPM_P1;HPM_P2
2023/08/22 00:00:53;;;;;;;16.63;7.93;;;17.40;99.90;;;;;;5173381;27;20117;-81
2023/08/22 00:03:19;;;;;;;11.05;7.60;;;17.40;99.90;;;;;;5139262;27;20070;-81
2023/08/22 00:05:44;;;;;;;10.50;6.60;;;17.40;99.90;;;;;;5116052;27;20070;-81
2023/08/22 00:08:10;;;;;;;11.65;7.10;;;17.40;99.90;;;;;;5133931;27;20043;-80
2023/08/22 00:10:36;;;;;;;11.07;8.07;;;17.40;99.90;;;;;;5133566;27;20035;-81
2023/08/22 00:13:03;;;;;;;16.15;8.40;;;17.40;99.90;;;;;;5116708;27;20117;-80
2023/08/22 00:15:29;;;;;;;12.07;7.70;;;17.40;99.90;;;;;;5116453;27;20039;-81
2023/08/22 00:17:55;;;;;;;10.70;8.10;;;17.40;99.90;;;;;;5161017;27;20070;-81
2023/08/22 00:20:22;;;;;;;17.25;9.15;;;17.40;99.90;;;;;;5153995;27;20070;-81
2023/08/22 00:22:48;;;;;;;13.05;8.77;;;17.50;99.90;;;;;;5153942;27;20090;-81
2023/08/22 00:25:13;;;;;;;10.15;9.02;;;17.50;99.90;;;;;;5136882;27;20045;-81
2023/08/22 00:27:39;;;;;;;17.58;7.43;;;17.50;99.90;;;;;;5136900;27;20030;-81
2023/08/22 00:30:07;;;;;;;10.80;8.35;;;17.50;99.90;;;;;;5154088;27;20675;-80
2023/08/22 00:32:32;;;;;;;15.52;8.73;;;17.50;99.90;;;;;;5128481;27;20094;-81
2023/08/22 00:34:58;;;;;;;14.70;9.52;;;17.50;99.90;;;;;;5132704;27;20492;-81
2023/08/22 00:37:24;;;;;;;14.10;8.40;;;17.50;99.90;;;;;;5132753;27;20196;-80
2023/08/22 00:39:50;;;;;;;12.05;8.30;;;17.60;99.90;;;;;;5116001;27;20040;-80
2023/08/22 00:42:16;;;;;;;15.05;8.77;;;17.60;99.90;;;;;;5133071;27;20091;-81
2023/08/22 00:44:41;;;;;;;16.52;9.15;;;17.60;99.90;;;;;;5151682;27;20038;-81
2023/08/22 00:47:08;;;;;;;11.90;10.32;;;17.60;99.90;;;;;;5117928;27;20035;-81
2023/08/22 00:49:34;;;;;;;13.25;9.63;;;17.60;99.90;;;;;;5172103;27;20038;-81
2023/08/22 00:52:01;;;;;;;13.80;9.35;;;17.50;99.90;;;;;;5136488;27;20083;-81
2023/08/22 00:54:30;;;;;;;15.38;9.27;;;17.50;99.90;;;;;;5153630;27;20122;-81
2023/08/22 00:56:57;;;;;;;11.93;8.43;;;17.50;99.90;;;;;;5172116;27;20475;-81
2023/08/22 00:59:25;;;;;;;12.85;8.55;;;17.40;99.90;;;;;;5171869;27;20038;-81
2023/08/22 01:01:51;;;;;;;11.57;9.20;;;17.40;99.90;;;;;;5151046;27;20120;-81
2023/08/22 01:04:17;;;;;;;13.32;8.77;;;17.50;99.90;;;;;;5132438;27;20041;-81
2023/08/22 01:06:55;;;;;;;14.15;9.48;;;17.40;99.90;;;;;;5132628;27;20043;-81
2023/08/22 01:09:31;;;;;;;12.88;9.35;;;17.30;99.90;;;;;;5151324;27;20038;-81
2023/08/22 01:12:08;;;;;;;16.77;10.85;;;17.30;99.90;;;;;;5171794;27;20034;-81
2023/08/22 01:14:45;;;;;;;12.73;10.13;;;17.30;99.90;;;;;;5153057;27;20035;-80
2023/08/22 01:17:13;;;;;;;13.13;9.50;;;17.30;99.90;;;;;;5171365;27;20038;-81
2023/08/22 01:19:39;;;;;;;12.82;9.30;;;17.20;99.90;;;;;;5135828;27;20048;-81
2023/08/22 01:22:04;;;;;;;13.48;9.82;;;17.20;99.90;;;;;;5149462;27;20110;-81
2023/08/22 01:24:30;;;;;;;12.35;9.70;;;17.20;99.90;;;;;;5111567;27;20052;-80
2023/08/22 01:26:56;;;;;;;16.17;10.88;;;17.20;99.90;;;;;;5128659;27;20035;-80
2023/08/22 01:29:41;;;;;;;17.60;10.85;;;17.20;99.90;;;;;;5111582;27;20035;-81
2023/08/22 01:32:22;;;;;;;16.52;10.15;;;17.20;99.90;;;;;;5128258;27;20042;-80
2023/08/22 01:34:50;;;;;;;14.55;9.98;;;17.20;99.90;;;;;;5130172;27;20043;-80
2023/08/22 01:37:16;;;;;;;15.15;11.00;;;17.20;99.90;;;;;;5135481;27;20046;-80
2023/08/22 01:39:44;;;;;;;14.40;9.07;;;17.20;99.90;;;;;;5149173;27;20042;-81
2023/08/22 01:42:10;;;;;;;14.32;9.88;;;17.20;99.90;;;;;;5149273;27;20039;-80
2023/08/22 01:44:37;;;;;;;14.65;9.95;;;17.20;99.90;;;;;;5131787;27;20046;-81
2023/08/22 01:47:03;;;;;;;17.10;8.88;;;17.20;99.90;;;;;;5131396;27;20048;-81
2023/08/22 01:49:28;;;;;;;15.73;9.80;;;17.20;99.90;;;;;;5148627;27;20039;-80
2023/08/22 01:51:55;;;;;;;18.13;10.80;;;17.20;99.90;;;;;;5142903;27;20066;-80
2023/08/22 01:54:21;;;;;;;15.27;11.38;;;17.20;99.90;;;;;;5111379;28;20039;-81
2023/08/22 01:56:47;;;;;;;13.82;9.63;;;17.20;99.90;;;;;;5129728;28;20114;-80
2023/08/22 01:59:12;;;;;;;12.48;9.82;;;17.10;99.90;;;;;;5111165;28;20088;-80
2023/08/22 02:01:38;;;;;;;16.35;11.38;;;17.10;99.90;;;;;;5128040;28;20031;-81
2023/08/22 02:04:04;;;;;;;15.38;10.77;;;17.20;99.90;;;;;;5111271;28;20111;-81
2023/08/22 02:06:31;;;;;;;13.30;10.65;;;17.10;99.90;;;;;;5133391;27;20106;-80
2023/08/22 02:08:57;;;;;;;13.27;10.18;;;17.10;99.90;;;;;;5131740;27;20039;-81
2023/08/22 02:11:22;;;;;;;18.88;11.60;;;17.10;99.90;;;;;;5150412;27;20033;-81
2023/08/22 02:13:48;;;;;;;12.18;8.90;;;17.10;99.90;;;;;;5149271;27;20038;-81
2023/08/22 02:16:14;;;;;;;14.68;10.27;;;17.00;99.90;;;;;;5148626;27;20034;-80
2023/08/22 02:18:40;;;;;;;12.38;9.40;;;17.00;99.90;;;;;;5148904;27;20090;-81
2023/08/22 02:21:06;;;;;;;14.35;10.38;;;17.00;99.90;;;;;;5131650;27;20035;-81
2023/08/22 02:23:32;;;;;;;12.68;10.93;;;16.90;99.90;;;;;;5148582;27;20102;-80
2023/08/22 02:25:58;;;;;;;14.07;9.20;;;16.90;99.90;;;;;;5149177;27;20050;-81
2023/08/22 02:28:24;;;;;;;15.45;10.48;;;16.80;99.90;;;;;;5148677;27;20071;-81
2023/08/22 02:30:58;;;;;;;14.75;8.90;;;16.70;99.90;;;;;;5131018;27;20069;-80
2023/08/22 02:33:24;;;;;;;11.93;8.60;;;16.70;99.90;;;;;;5150057;27;20110;-81
2023/08/22 02:35:49;;;;;;;15.32;11.23;;;16.60;99.90;;;;;;5128041;27;20078;-80
2023/08/22 02:38:15;;;;;;;15.02;9.90;;;16.60;99.90;;;;;;5128219;28;20043;-81
2023/08/22 02:40:41;;;;;;;15.80;10.88;;;16.50;99.90;;;;;;5110776;28;20039;-80
2023/08/22 02:43:07;;;;;;;15.43;10.40;;;16.50;99.90;;;;;;5129284;28;20110;-80
2023/08/22 02:45:32;;;;;;;15.27;11.10;;;16.40;99.90;;;;;;5127865;28;20473;-81
2023/08/22 02:47:58;;;;;;;16.58;12.80;;;16.40;99.90;;;;;;5110919;28;20039;-80
2023/08/22 02:50:24;;;;;;;17.08;11.90;;;16.40;99.90;;;;;;5111076;27;20038;-81
2023/08/22 02:52:50;;;;;;;12.30;9.35;;;16.40;99.90;;;;;;5127824;28;20035;-80
2023/08/22 02:55:17;;;;;;;16.08;10.48;;;16.30;99.90;;;;;;5110598;28;20038;-80
2023/08/22 02:57:42;;;;;;;12.18;8.35;;;16.30;99.90;;;;;;5129136;27;20122;-81
2023/08/22 03:00:11;;;;;;;10.98;9.77;;;16.40;99.90;;;;;;5128345;27;20118;-80
2023/08/22 03:02:37;;;;;;;12.10;10.73;;;16.40;99.90;;;;;;5131759;27;20039;-80
2023/08/22 03:05:11;;;;;;;13.75;9.75;;;16.30;99.90;;;;;;5132579;27;20070;-80
2023/08/22 03:07:37;;;;;;;14.75;9.88;;;16.30;99.90;;;;;;5152328;27;20380;-80
2023/08/22 03:10:02;;;;;;;17.25;11.15;;;16.30;99.90;;;;;;5135118;27;20043;-81
2023/08/22 03:12:28;;;;;;;13.60;10.68;;;16.30;99.90;;;;;;5134772;27;20045;-80
2023/08/22 03:14:54;;;;;;;17.27;11.13;;;16.20;99.90;;;;;;5152780;27;20639;-80
2023/08/22 03:17:19;;;;;;;14.30;10.43;;;16.20;99.90;;;;;;5152357;27;20099;-80
2023/08/22 03:19:45;;;;;;;12.82;10.98;;;16.10;99.90;;;;;;5134584;27;20046;-80
2023/08/22 03:22:11;;;;;;;15.00;9.57;;;16.10;99.90;;;;;;5152080;27;20038;-80
2023/08/22 03:24:36;;;;;;;14.65;9.70;;;16.10;99.90;;;;;;5151663;27;20070;-80
2023/08/22 03:27:02;;;;;;;13.52;11.65;;;16.10;99.90;;;;;;5151787;27;20050;-80
2023/08/22 03:29:28;;;;;;;12.65;9.55;;;16.00;99.90;;;;;;5151452;27;20400;-81
2023/08/22 03:31:53;;;;;;;12.55;9.88;;;15.90;99.90;;;;;;5151963;27;20091;-81
2023/08/22 03:34:19;;;;;;;15.15;11.70;;;15.90;99.90;;;;;;5152121;27;20635;-81
2023/08/22 03:36:45;;;;;;;13.35;10.63;;;15.80;99.90;;;;;;5131472;27;20042;-80
2023/08/22 03:39:10;;;;;;;16.73;11.05;;;15.80;99.90;;;;;;5113757;27;20035;-81
2023/08/22 03:41:36;;;;;;;14.27;11.88;;;15.70;99.90;;;;;;5113772;27;20168;-81
2023/08/22 03:44:02;;;;;;;14.57;11.82;;;15.70;99.90;;;;;;5113042;27;20519;-80
2023/08/22 03:46:28;;;;;;;14.93;12.02;;;15.70;99.90;;;;;;5113543;27;20043;-80
2023/08/22 03:48:54;;;;;;;13.88;10.77;;;15.60;99.90;;;;;;5113459;27;20047;-80
2023/08/22 03:51:19;;;;;;;11.90;10.70;;;15.50;99.90;;;;;;5113483;27;20489;-82
2023/08/22 03:53:45;;;;;;;17.52;10.60;;;15.50;99.90;;;;;;5113719;27;20044;-81
2023/08/22 03:56:11;;;;;;;18.65;10.20;;;15.50;99.90;;;;;;5115993;27;20472;-80
2023/08/22 03:58:36;;;;;;;12.10;10.57;;;15.40;99.90;;;;;;5113851;27;20039;-81
2023/08/22 04:01:03;;;;;;;12.68;10.63;;;15.40;99.90;;;;;;5130676;27;20042;-81
2023/08/22 04:03:29;;;;;;;14.15;11.50;;;15.30;99.90;;;;;;5130384;27;20047;-80
2023/08/22 04:05:55;;;;;;;13.57;11.40;;;15.30;99.90;;;;;;5147514;27;20412;-81
2023/08/22 04:08:21;;;;;;;12.93;11.60;;;15.20;99.90;;;;;;5150930;27;20039;-81
2023/08/22 04:10:46;;;;;;;13.25;11.52;;;15.20;99.90;;;;;;5133883;27;20070;-81
2023/08/22 04:13:12;;;;;;;15.27;12.50;;;15.20;99.90;;;;;;5132362;27;20033;-81
2023/08/22 04:15:39;;;;;;;14.95;13.18;;;15.20;99.90;;;;;;5133484;27;20118;-81
2023/08/22 04:18:05;;;;;;;13.32;11.80;;;15.10;99.90;;;;;;5152225;27;20050;-81
2023/08/22 04:20:31;;;;;;;13.43;12.05;;;15.10;99.90;;;;;;5136283;27;20370;-81
2023/08/22 04:22:57;;;;;;;13.40;10.32;;;15.00;99.90;;;;;;5114046;27;20035;-81
2023/08/22 04:25:22;;;;;;;11.48;10.35;;;14.90;99.90;;;;;;5133061;27;20107;-81
2023/08/22 04:27:48;;;;;;;12.30;11.10;;;15.00;99.90;;;;;;5151785;27;20689;-81
2023/08/22 04:30:14;;;;;;;12.05;9.95;;;14.90;99.90;;;;;;5133461;27;20505;-81
2023/08/22 04:32:39;;;;;;;12.40;11.15;;;14.90;99.90;;;;;;5116183;27;20629;-81
2023/08/22 04:35:05;;;;;;;18.13;11.40;;;14.90;99.90;;;;;;5143851;27;20091;-80
2023/08/22 04:37:31;;;;;;;17.08;11.75;;;14.90;99.90;;;;;;5115974;27;20392;-81
2023/08/22 04:39:57;;;;;;;12.40;10.82;;;14.90;99.90;;;;;;5132713;27;20109;-81
2023/08/22 04:42:24;;;;;;;12.65;11.07;;;14.90;99.90;;;;;;5151613;27;20088;-80
2023/08/22 04:44:49;;;;;;;11.63;10.55;;;14.90;99.90;;;;;;5151702;27;20038;-80
2023/08/22 04:47:15;;;;;;;12.65;10.98;;;14.90;99.90;;;;;;5132896;27;20098;-81
2023/08/22 04:49:41;;;;;;;12.38;10.75;;;14.90;99.90;;;;;;5145611;27;20038;-81
2023/08/22 04:52:07;;;;;;;14.48;11.20;;;14.90;99.90;;;;;;5172462;27;20038;-81
2023/08/22 04:54:33;;;;;;;12.73;11.35;;;14.90;99.90;;;;;;5135937;27;20129;-81
2023/08/22 04:56:59;;;;;;;13.18;11.38;;;14.90;99.90;;;;;;5153840;27;20145;-81
2023/08/22 04:59:25;;;;;;;15.85;11.95;;;15.00;99.90;;;;;;5153587;27;20113;-81
2023/08/22 05:01:50;;;;;;;13.60;12.15;;;15.00;99.90;;;;;;5153346;27;20048;-81
2023/08/22 05:04:16;;;;;;;12.57;10.90;;;15.00;99.90;;;;;;5153237;27;20031;-81
2023/08/22 05:06:42;;;;;;;14.40;11.70;;;15.10;99.90;;;;;;5136008;27;20041;-81
2023/08/22 05:09:09;;;;;;;14.27;11.65;;;15.00;99.90;;;;;;5135463;27;20392;-81
2023/08/22 05:11:35;;;;;;;14.27;12.38;;;15.10;99.90;;;;;;5135951;27;20044;-81
2023/08/22 05:14:02;;;;;;;13.50;11.50;;;15.10;99.90;;;;;;5135916;27;20041;-81
2023/08/22 05:16:28;;;;;;;14.02;11.10;;;15.20;99.90;;;;;;5136347;27;20085;-81
2023/08/22 05:18:53;;;;;;;16.35;11.60;;;15.10;99.90;;;;;;5142251;27;20046;-81
2023/08/22 05:21:19;;;;;;;14.77;11.85;;;15.40;99.90;;;;;;5115306;27;20515;-80
2023/08/22 05:23:44;;;;;;;16.65;11.13;;;15.30;99.90;;;;;;5134322;27;20054;-80
2023/08/22 05:26:10;;;;;;;17.73;11.95;;;15.30;99.90;;;;;;5131985;27;20049;-80
2023/08/22 05:28:36;;;;;;;17.63;12.15;;;15.40;99.90;;;;;;5115082;27;20396;-80
2023/08/22 05:31:01;;;;;;;14.25;12.13;;;15.40;99.90;;;;;;5115535;27;20186;-80
2023/08/22 05:33:27;;;;;;;12.95;11.63;;;15.40;99.90;;;;;;5114987;27;20031;-80
2023/08/22 05:35:53;;;;;;;11.68;9.95;;;15.50;99.90;;;;;;5132248;27;20035;-80
2023/08/22 05:38:18;;;;;;;14.65;11.30;;;15.50;99.90;;;;;;5114735;27;20031;-80
2023/08/22 05:40:44;;;;;;;13.48;12.07;;;15.60;99.90;;;;;;5132078;27;20476;-80
2023/08/22 05:43:09;;;;;;;15.35;11.93;;;15.70;99.90;;;;;;5132052;27;20480;-80
2023/08/22 05:45:35;;;;;;;15.15;11.73;;;15.90;99.90;;;;;;5114785;27;20289;-80
2023/08/22 05:48:01;;;;;;;16.63;13.30;;;16.10;99.90;;;;;;5134573;27;20031;-81
2023/08/22 05:50:26;;;;;;;16.70;11.65;;;16.40;99.90;;;;;;5152754;27;20142;-81
2023/08/22 05:52:52;;;;;;;18.17;11.68;;;16.70;99.90;;;;;;5152254;27;20074;-81
2023/08/22 05:55:18;;;;;;;14.65;12.73;;;17.20;99.90;;;;;;5135354;27;20035;-80
2023/08/22 05:57:43;;;;;;;14.55;11.77;;;17.70;99.90;;;;;;5135203;27;20026;-80
2023/08/22 06:00:10;;;;;;;19.25;11.50;;;17.90;99.90;;;;;;5152968;27;20030;-81
2023/08/22 06:02:36;;;;;;;15.75;11.25;;;18.10;99.90;;;;;;5117924;27;20038;-81
2023/08/22 06:05:02;;;;;;;19.20;11.70;;;18.80;99.90;;;;;;5137466;27;20094;-81
2023/08/22 06:07:28;;;;;;;15.65;10.40;;;19.90;99.90;;;;;;5111183;27;20164;-81
2023/08/22 06:09:53;;;;;;;14.75;10.23;;;21.00;99.90;;;;;;5113221;27;20121;-81
2023/08/22 06:12:19;;;;;;;12.75;9.82;;;21.20;99.90;;;;;;5114610;27;20109;-81
2023/08/22 06:14:44;;;;;;;14.35;9.77;;;21.10;99.90;;;;;;5131992;27;20095;-81
2023/08/22 06:17:10;;;;;;;12.95;10.15;;;20.80;99.90;;;;;;5150247;27;20041;-80
2023/08/22 06:19:36;;;;;;;12.65;9.52;;;20.60;99.90;;;;;;5170783;27;20038;-81
2023/08/22 06:22:02;;;;;;;14.57;10.88;;;20.40;99.90;;;;;;5152013;27;20087;-81
2023/08/22 06:24:28;;;;;;;14.45;11.95;;;20.30;99.90;;;;;;5134792;27;20075;-81
2023/08/22 06:26:53;;;;;;;12.95;11.45;;;20.20;99.90;;;;;;5135065;27;20717;-81
2023/08/22 06:29:19;;;;;;;16.52;10.43;;;20.10;99.90;;;;;;5152104;27;20046;-81
2023/08/22 06:31:44;;;;;;;15.75;12.50;;;20.10;99.90;;;;;;5134944;27;20037;-81
2023/08/22 06:34:10;;;;;;;16.75;11.68;;;20.10;99.90;;;;;;5123774;27;20042;-80
2023/08/22 06:36:36;;;;;;;12.43;11.23;;;20.30;99.90;;;;;;5132962;27;20057;-80
2023/08/22 06:39:03;;;;;;;13.43;10.82;;;20.90;99.90;;;;;;5116957;27;20098;-80
2023/08/22 06:41:29;;;;;;;14.40;10.32;;;21.80;99.90;;;;;;5135339;27;20081;-80
2023/08/22 06:43:55;;;;;;;12.85;10.57;;;22.90;99.90;;;;;;5135518;27;20074;-80
2023/08/22 06:46:21;;;;;;;14.90;11.32;;;24.30;99.90;;;;;;5118318;27;20042;-81
2023/08/22 06:48:50;;;;;;;14.48;11.95;;;25.40;99.90;;;;;;5135482;27;20067;-81
2023/08/22 06:51:16;;;;;;;9.88;8.88;;;26.50;99.90;;;;;;5118000;27;20087;-81
2023/08/22 06:53:42;;;;;;;15.75;9.73;;;27.30;99.90;;;;;;5153540;27;20066;-81
2023/08/22 06:56:08;;;;;;;13.40;9.00;;;28.20;99.90;;;;;;5117383;27;20455;-80
2023/08/22 06:58:33;;;;;;;14.73;13.32;;;28.00;99.90;;;;;;5134592;27;20103;-81
2023/08/22 07:00:59;;;;;;;41.03;37.65;;;27.30;99.90;;;;;;5153177;27;20042;-80
2023/08/22 07:03:25;;;;;;;53.92;49.17;;;26.60;99.90;;;;;;5117168;27;20045;-81
2023/08/22 07:05:54;;;;;;;58.00;52.13;;;26.10;99.90;;;;;;5116644;27;20492;-80
2023/08/22 07:08:20;;;;;;;41.30;37.30;;;25.50;99.90;;;;;;5152339;27;20035;-81
2023/08/22 07:10:46;;;;;;;89.53;80.90;;;24.90;99.90;;;;;;5116922;27;20035;-80
2023/08/22 07:13:11;;;;;;;69.25;62.42;;;24.50;99.90;;;;;;5117142;27;20114;-80
2023/08/22 07:15:37;;;;;;;41.88;38.15;;;24.10;99.90;;;;;;5116894;27;20034;-80
2023/08/22 07:18:03;;;;;;;39.28;35.50;;;23.90;99.90;;;;;;5145401;27;20724;-81
2023/08/22 07:20:28;;;;;;;36.67;33.35;;;23.70;99.90;;;;;;5136878;27;20031;-81
2023/08/22 07:22:54;;;;;;;24.15;21.83;;;23.60;99.90;;;;;;5173367;27;20125;-80
2023/08/22 07:25:20;;;;;;;12.98;11.10;;;23.50;99.90;;;;;;5126541;27;20082;-81
2023/08/22 07:27:45;;;;;;;15.32;13.88;;;23.50;99.90;;;;;;5132834;27;20075;-81
2023/08/22 07:30:11;;;;;;;15.50;13.73;;;23.40;99.90;;;;;;5115595;27;20091;-80
2023/08/22 07:32:37;;;;;;;16.88;13.27;;;23.40;99.90;;;;;;5134424;27;20118;-81
2023/08/22 07:35:03;;;;;;;14.07;12.80;;;23.50;99.90;;;;;;5115500;27;20126;-81
2023/08/22 07:37:29;;;;;;;16.90;14.82;;;23.60;99.90;;;;;;5116602;27;20118;-80
2023/08/22 07:39:56;;;;;;;15.05;13.52;;;23.70;99.90;;;;;;5115151;27;20061;-81
2023/08/22 07:42:21;;;;;;;24.88;22.98;;;23.70;99.90;;;;;;5132268;27;20440;-80
2023/08/22 07:44:47;;;;;;;17.75;16.10;;;23.70;99.90;;;;;;5132531;27;20062;-80
2023/08/22 07:47:13;;;;;;;18.48;16.92;;;23.60;99.90;;;;;;5131322;27;20408;-80
2023/08/22 07:49:38;;;;;;;21.83;20.20;;;23.70;99.90;;;;;;5115059;27;20091;-80
2023/08/22 07:52:04;;;;;;;23.13;21.20;;;23.80;99.90;;;;;;5115462;27;20063;-80
2023/08/22 07:54:30;;;;;;;31.98;29.38;;;23.80;99.90;;;;;;5115474;27;20487;-79
2023/08/22 07:56:56;;;;;;;24.55;22.52;;;23.90;99.90;;;;;;5132635;27;20070;-80
2023/08/22 07:59:22;;;;;;;30.88;28.13;;;24.00;99.90;;;;;;5133309;27;20080;-84
2023/08/22 08:01:48;;;;;;;28.25;25.95;;;23.90;99.90;;;;;;5135222;27;20042;-83
2023/08/22 08:04:14;;;;;;;27.20;24.80;;;23.90;99.90;;;;;;5151979;27;20043;-82
2023/08/22 08:06:39;;;;;;;37.95;34.67;;;24.00;99.90;;;;;;5117028;27;20050;-81
2023/08/22 08:09:05;;;;;;;28.27;25.88;;;23.90;99.90;;;;;;5116442;27;20120;-84
2023/08/22 08:11:32;;;;;;;27.08;24.90;;;23.90;99.90;;;;;;5116492;27;20035;-80
2023/08/22 08:13:58;;;;;;;34.45;31.67;;;23.90;99.90;;;;;;5133025;27;20061;-80
2023/08/22 08:16:24;;;;;;;41.92;38.88;;;24.20;99.90;;;;;;5117506;27;20597;-80
2023/08/22 08:18:53;;;;;;;51.95;47.83;;;24.60;99.90;;;;;;5131735;27;20047;-80
2023/08/22 08:21:19;;;;;;;42.13;39.08;;;24.80;99.90;;;;;;5112774;27;20034;-80
2023/08/22 08:23:44;;;;;;;74.57;67.75;;;25.10;99.90;;;;;;5150413;27;20089;-80
2023/08/22 08:26:11;;;;;;;61.95;56.50;;;25.10;99.90;;;;;;5129621;27;20484;-80
2023/08/22 08:28:37;;;;;;;39.42;36.17;;;24.80;99.90;;;;;;5129554;27;20610;-80
2023/08/22 08:31:02;;;;;;;62.80;57.33;;;24.70;99.90;;;;;;5150831;27;20277;-80
2023/08/22 08:33:28;;;;;;;53.83;49.20;;;24.90;99.90;;;;;;5132116;27;20026;-80
2023/08/22 08:35:54;;;;;;;77.30;70.35;;;25.20;99.90;;;;;;5132810;27;20046;-80
2023/08/22 08:38:20;;;;;;;50.78;46.65;;;25.20;99.90;;;;;;5132387;27;20047;-78
2023/08/22 08:40:46;;;;;;;138.35;125.05;;;25.30;99.90;;;;;;5133142;27;20400;-80
2023/08/22 08:43:12;;;;;;;150.50;135.63;;;25.30;99.90;;;;;;5115682;27;20030;-81
2023/08/22 08:45:39;;;;;;;182.18;162.95;;;25.30;99.90;;;;;;5115713;27;20031;-80
2023/08/22 08:48:06;;;;;;;288.05;259.83;;;25.30;99.90;;;;;;5132169;27;20400;-80
2023/08/22 08:50:32;;;;;;;528.60;479.40;;;25.40;99.90;;;;;;5132414;27;20147;-81
2023/08/22 08:52:58;;;;;;;948.42;741.50;;;25.40;99.90;;;;;;5115520;27;20030;-79
2023/08/22 08:55:24;;;;;;;983.47;763.42;;;25.30;99.90;;;;;;5115237;27;20070;-80
2023/08/22 08:57:52;;;;;;;1342.88;880.20;;;25.20;99.90;;;;;;5131314;27;20081;-80
2023/08/22 09:00:18;;;;;;;1999.28;999.90;;;25.30;99.90;;;;;;5123553;27;20059;-79
2023/08/22 09:02:44;;;;;;;1999.90;999.90;;;25.30;99.90;;;;;;5169987;27;20146;-80
2023/08/22 09:05:11;;;;;;;1999.90;991.13;;;25.70;99.90;;;;;;5135279;27;20061;-79
2023/08/22 09:07:42;;;;;;;1999.90;995.70;;;26.10;99.90;;;;;;5152695;27;20042;-80
2023/08/22 09:10:09;;;;;;;1999.90;885.28;;;26.70;99.90;;;;;;5152579;27;20136;-80
2023/08/22 09:12:36;;;;;;;1999.90;999.90;;;27.40;99.90;;;;;;5135669;27;20038;-80
2023/08/22 09:15:06;;;;;;;1716.93;791.83;;;27.90;99.90;;;;;;5121804;27;20043;-80
2023/08/22 09:17:32;;;;;;;1999.90;999.90;;;28.60;99.90;;;;;;5091925;27;20041;-80
2023/08/22 09:19:58;;;;;;;1999.90;999.90;;;29.20;99.90;;;;;;5109295;27;20035;-80
2023/08/22 09:22:30;;;;;;;1999.90;999.90;;;29.70;99.90;;;;;;5092770;27;20046;-80
2023/08/22 09:24:56;;;;;;;1999.90;999.90;;;30.20;99.40;;;;;;5109165;27;20070;-80
2023/08/22 09:27:26;;;;;;;1999.90;999.90;;;30.60;99.10;;;;;;5092305;27;20034;-80
2023/08/22 09:29:52;;;;;;;1999.90;999.90;;;30.80;98.30;;;;;;5108932;27;20090;-80
2023/08/22 09:32:21;;;;;;;1999.90;999.90;;;30.80;97.90;;;;;;5134384;27;20042;-80
2023/08/22 09:34:55;;;;;;;1999.90;999.90;;;30.60;97.60;;;;;;5152354;27;20042;-80
2023/08/22 09:37:37;;;;;;;1999.90;999.90;;;30.30;97.20;;;;;;5152484;27;20607;-80
2023/08/22 09:40:09;;;;;;;1999.90;999.90;;;29.90;97.70;;;;;;5170838;27;20042;-80
2023/08/22 09:42:38;;;;;;;1999.90;999.90;;;29.20;96.90;;;;;;5152081;27;20038;-80
2023/08/22 09:45:05;;;;;;;1999.90;999.90;;;28.50;97.70;;;;;;5170412;27;20042;-80
2023/08/22 09:47:31;;;;;;;1999.90;999.90;;;27.90;98.70;;;;;;5151680;27;20045;-80
2023/08/22 09:50:06;;;;;;;1999.90;999.90;;;27.30;99.20;;;;;;5135107;27;20045;-79
2023/08/22 09:52:36;;;;;;;1999.90;999.90;;;27.10;99.70;;;;;;5170779;27;20042;-80
2023/08/22 09:55:02;;;;;;;1999.90;999.90;;;26.90;99.90;;;;;;5134559;27;20496;-80
2023/08/22 09:57:30;;;;;;;1999.90;999.90;;;26.70;99.90;;;;;;5152095;27;20121;-80
2023/08/22 09:59:59;;;;;;;1999.90;999.90;;;26.50;99.90;;;;;;5147669;27;20045;-80
2023/08/22 10:02:26;;;;;;;1999.90;999.90;;;26.60;99.90;;;;;;5149994;27;20049;-79
2023/08/22 10:04:53;;;;;;;1999.90;999.90;;;26.60;99.90;;;;;;5130966;27;20038;-80
2023/08/22 10:07:18;;;;;;;1999.90;999.90;;;26.60;99.90;;;;;;5131201;27;20034;-79
2023/08/22 10:09:44;;;;;;;1999.90;999.90;;;26.60;99.90;;;;;;5131462;27;20111;-80
2023/08/22 10:12:14;;;;;;;1999.90;999.90;;;26.60;99.90;;;;;;5135158;27;20113;-79
2023/08/22 10:14:50;;;;;;;1999.90;999.90;;;26.60;99.90;;;;;;5134998;27;20069;-80
2023/08/22 10:17:16;;;;;;;1999.90;999.90;;;26.50;99.90;;;;;;5135436;27;20079;-80
2023/08/22 10:19:42;;;;;;;1999.90;999.90;;;26.40;99.90;;;;;;5135271;27;20388;-80
2023/08/22 10:22:13;;;;;;;1999.90;999.90;;;26.40;99.90;;;;;;5135641;27;20038;-80
2023/08/22 10:24:39;;;;;;;1999.90;999.90;;;26.50;99.90;;;;;;5153453;27;20046;-80
2023/08/22 10:27:06;;;;;;;1999.90;999.90;;;26.60;99.90;;;;;;5135287;27;20046;-80
2023/08/22 10:30:13;;;;;;;1999.90;999.90;;;26.50;99.90;;;;;;5138434;27;20034;-80
2023/08/22 10:32:40;;;;;;;1999.90;999.90;;;26.30;99.90;;;;;;5126897;27;20445;-80
2023/08/22 10:35:21;;;;;;;1999.90;999.90;;;26.30;99.90;;;;;;5155690;27;20126;-80
2023/08/22 10:37:52;;;;;;;1999.90;999.90;;;26.50;99.90;;;;;;5138500;27;20045;-79
2023/08/22 10:40:24;;;;;;;1999.90;999.90;;;26.60;99.90;;;;;;5155802;27;20082;-79
2023/08/22 10:42:52;;;;;;;1999.90;999.90;;;26.70;99.90;;;;;;5154926;27;20042;-80
2023/08/22 10:45:19;;;;;;;1999.90;999.90;;;26.70;99.90;;;;;;5134752;27;20071;-80
2023/08/22 10:47:49;;;;;;;1999.90;999.90;;;26.70;99.90;;;;;;5117772;27;20034;-80
2023/08/22 10:50:15;;;;;;;1999.90;999.90;;;26.70;99.90;;;;;;5134721;27;20514;-80
2023/08/22 10:52:41;;;;;;;1999.90;999.90;;;26.70;99.90;;;;;;5117691;27;20099;-79
2023/08/22 10:55:11;;;;;;;1999.90;999.90;;;26.70;99.90;;;;;;5134548;27;20042;-80
2023/08/22 10:57:38;;;;;;;1999.90;999.90;;;26.80;99.90;;;;;;5152953;27;20043;-80
2023/08/22 11:00:19;;;;;;;1999.90;999.90;;;26.90;99.90;;;;;;5134698;27;20033;-79
2023/08/22 11:02:49;;;;;;;1999.90;999.90;;;26.80;99.90;;;;;;5117344;27;20042;-80
2023/08/22 11:05:15;;;;;;;1999.90;999.90;;;26.90;99.90;;;;;;5134502;27;20039;-80
2023/08/22 11:07:46;;;;;;;1999.90;999.90;;;26.90;99.90;;;;;;5117017;27;20031;-80
2023/08/22 11:10:14;;;;;;;1999.90;999.90;;;27.00;99.90;;;;;;5134364;27;20074;-80
2023/08/22 11:12:41;;;;;;;1999.90;999.90;;;27.00;99.90;;;;;;5116764;27;20033;-80
2023/08/22 11:15:07;;;;;;;1999.90;999.90;;;27.10;99.90;;;;;;5158716;27;20140;-80
2023/08/22 11:17:37;;;;;;;1999.90;999.90;;;27.00;99.90;;;;;;5173627;27;20027;-80
2023/08/22 11:20:04;;;;;;;1999.90;999.90;;;27.10;99.90;;;;;;5138047;27;20389;-79
2023/08/22 11:22:32;;;;;;;1999.90;999.90;;;27.20;99.90;;;;;;5154633;27;20087;-80
2023/08/22 11:24:57;;;;;;;1999.90;999.90;;;27.10;99.90;;;;;;5154760;27;20054;-80
2023/08/22 11:27:23;;;;;;;1999.90;999.90;;;27.20;99.90;;;;;;5154273;27;20506;-80
2023/08/22 11:29:50;;;;;;;1999.90;999.90;;;27.30;99.90;;;;;;5154424;27;20458;-80
2023/08/22 11:32:20;;;;;;;1999.90;999.90;;;27.30;99.70;;;;;;5173539;27;20121;-79
2023/08/22 11:34:46;;;;;;;1999.90;999.90;;;27.40;99.70;;;;;;5173290;27;20066;-80
2023/08/22 11:37:12;;;;;;;1999.90;999.90;;;27.40;99.90;;;;;;5173745;27;20118;-80
2023/08/22 11:39:38;;;;;;;1999.90;999.90;;;27.40;99.50;;;;;;5154503;27;20121;-80
2023/08/22 11:42:04;;;;;;;1999.90;999.90;;;27.50;99.70;;;;;;5153930;27;20129;-80
2023/08/22 11:44:30;;;;;;;1999.90;999.90;;;27.50;99.80;;;;;;5149157;27;20033;-80
2023/08/22 11:46:55;;;;;;;1999.90;999.90;;;27.60;99.30;;;;;;5116225;27;20466;-79
2023/08/22 11:49:21;;;;;;;1999.90;999.90;;;27.60;99.50;;;;;;5133416;27;20049;-80
2023/08/22 11:51:52;;;;;;;1999.90;999.90;;;27.50;99.30;;;;;;5116294;27;20031;-80
2023/08/22 11:54:25;;;;;;;1999.90;999.90;;;27.50;99.50;;;;;;5133330;27;20034;-80
2023/08/22 11:56:53;;;;;;;1999.90;999.90;;;27.60;99.60;;;;;;5133031;27;20327;-80
2023/08/22 11:59:19;;;;;;;1999.90;999.90;;;27.70;99.50;;;;;;5115937;27;20038;-80
2023/08/22 12:01:44;;;;;;;1999.90;999.90;;;27.70;99.80;;;;;;5133278;27;20053;-80
2023/08/22 12:04:10;;;;;;;1999.90;999.90;;;28.00;99.90;;;;;;5133186;27;20169;-80
2023/08/22 12:06:35;;;;;;;1999.90;999.90;;;28.10;99.50;;;;;;5133075;27;20035;-80
2023/08/22 12:09:01;;;;;;;1999.90;999.90;;;28.20;98.90;;;;;;5133036;27;20043;-80
2023/08/22 12:11:28;;;;;;;1999.90;999.90;;;28.40;98.80;;;;;;5132454;27;20038;-80
2023/08/22 12:13:53;;;;;;;1999.90;999.90;;;28.40;98.50;;;;;;5119575;27;20045;-80
2023/08/22 12:16:19;;;;;;;1999.90;999.90;;;28.30;98.50;;;;;;5153816;27;20060;-80
2023/08/22 12:18:45;;;;;;;1999.90;999.90;;;28.20;97.90;;;;;;5136437;27;20078;-80